sensor_id;sensor_type;location;lat;lon;timestamp;P1;durP1;ratioP1;P2;durP2;ratioP2
60494;SDS011;46342;49.046;11.920;2023-04-06T00:01:12;2.17;;;1.40;;
60494;SDS011;46342;49.046;11.920;2023-04-06T00:03:38;1.60;;;1.20;;
60494;SDS011;46342;49.046;11.920;2023-04-06T00:06:03;1.35;;;1.25;;
60494;SDS011;46342;49.046;11.920;2023-04-06T00:08:29;1.63;;;1.40;;
60494;SDS011;46342;49.046;11.920;2023-04-06T00:10:55;1.88;;;1.60;;
60494;SDS011;46342;49.046;11.920;2023-04-06T00:13:20;1.55;;;1.33;;
60494;SDS011;46342;49.046;11.920;2023-04-06T00:15:46;1.25;;;1.15;;
60494;SDS011;46342;49.046;11.920;2023-04-06T00:18:12;1.27;;;1.17;;
60494;SDS011;46342;49.046;11.920;2023-04-06T00:20:37;1.38;;;1.27;;
60494;SDS011;46342;49.046;11.920;2023-04-06T00:23:03;2.55;;;1.40;;
60494;SDS011;46342;49.046;11.920;2023-04-06T00:25:29;1.85;;;1.15;;
60494;SDS011;46342;49.046;11.920;2023-04-06T00:27:55;1.38;;;1.27;;
60494;SDS011;46342;49.046;11.920;2023-04-06T00:30:20;1.98;;;1.20;;
60494;SDS011;46342;49.046;11.920;2023-04-06T00:32:46;1.30;;;1.20;;
60494;SDS011;46342;49.046;11.920;2023-04-06T00:35:12;1.35;;;1.10;;
60494;SDS011;46342;49.046;11.920;2023-04-06T00:37:37;1.35;;;1.23;;
60494;SDS011;46342;49.046;11.920;2023-04-06T00:40:03;1.30;;;1.20;;
60494;SDS011;46342;49.046;11.920;2023-04-06T00:42:29;1.65;;;1.50;;
60494;SDS011;46342;49.046;11.920;2023-04-06T00:44:56;2.22;;;1.40;;
60494;SDS011;46342;49.046;11.920;2023-04-06T00:47:24;1.40;;;1.20;;
60494;SDS011;46342;49.046;11.920;2023-04-06T00:49:50;1.30;;;1.20;;
60494;SDS011;46342;49.046;11.920;2023-04-06T00:52:17;1.85;;;1.30;;
60494;SDS011;46342;49.046;11.920;2023-04-06T00:54:43;1.48;;;1.27;;
60494;SDS011;46342;49.046;11.920;2023-04-06T00:57:09;2.40;;;1.00;;
60494;SDS011;46342;49.046;11.920;2023-04-06T00:59:38;1.45;;;1.33;;
60494;SDS011;46342;49.046;11.920;2023-04-06T01:02:05;1.20;;;1.10;;
60494;SDS011;46342;49.046;11.920;2023-04-06T01:04:31;1.20;;;1.10;;
60494;SDS011;46342;49.046;11.920;2023-04-06T01:06:57;1.35;;;1.25;;
60494;SDS011;46342;49.046;11.920;2023-04-06T01:09:23;1.25;;;1.15;;
60494;SDS011;46342;49.046;11.920;2023-04-06T01:11:48;1.33;;;1.23;;
60494;SDS011;46342;49.046;11.920;2023-04-06T01:14:14;1.30;;;1.20;;
60494;SDS011;46342;49.046;11.920;2023-04-06T01:16:40;2.08;;;1.23;;
60494;SDS011;46342;49.046;11.920;2023-04-06T01:19:09;2.05;;;1.08;;
60494;SDS011;46342;49.046;11.920;2023-04-06T01:21:36;2.92;;;1.50;;
60494;SDS011;46342;49.046;11.920;2023-04-06T01:24:03;1.67;;;1.10;;
60494;SDS011;46342;49.046;11.920;2023-04-06T01:26:28;1.20;;;1.10;;
60494;SDS011;46342;49.046;11.920;2023-04-06T01:28:55;1.05;;;1.00;;
60494;SDS011;46342;49.046;11.920;2023-04-06T01:31:21;1.27;;;1.17;;
60494;SDS011;46342;49.046;11.920;2023-04-06T01:33:47;1.25;;;1.15;;
60494;SDS011;46342;49.046;11.920;2023-04-06T01:36:13;1.20;;;1.10;;
60494;SDS011;46342;49.046;11.920;2023-04-06T01:38:39;1.30;;;1.20;;
60494;SDS011;46342;49.046;11.920;2023-04-06T01:41:06;1.13;;;1.02;;
60494;SDS011;46342;49.046;11.920;2023-04-06T01:43:32;1.13;;;1.10;;
60494;SDS011;46342;49.046;11.920;2023-04-06T01:45:58;1.00;;;1.00;;
60494;SDS011;46342;49.046;11.920;2023-04-06T01:48:24;2.40;;;1.10;;
60494;SDS011;46342;49.046;11.920;2023-04-06T01:50:50;1.15;;;0.98;;
60494;SDS011;46342;49.046;11.920;2023-04-06T01:53:16;1.23;;;1.13;;
60494;SDS011;46342;49.046;11.920;2023-04-06T01:55:41;1.35;;;1.23;;
60494;SDS011;46342;49.046;11.920;2023-04-06T01:58:07;1.30;;;1.20;;
60494;SDS011;46342;49.046;11.920;2023-04-06T02:00:32;1.67;;;1.02;;
60494;SDS011;46342;49.046;11.920;2023-04-06T02:02:58;1.23;;;1.10;;
60494;SDS011;46342;49.046;11.920;2023-04-06T02:05:24;1.23;;;1.00;;
60494;SDS011;46342;49.046;11.920;2023-04-06T02:07:50;1.65;;;1.13;;
60494;SDS011;46342;49.046;11.920;2023-04-06T02:10:16;1.70;;;1.60;;
60494;SDS011;46342;49.046;11.920;2023-04-06T02:12:42;1.75;;;1.33;;
60494;SDS011;46342;49.046;11.920;2023-04-06T02:15:07;1.33;;;1.23;;
60494;SDS011;46342;49.046;11.920;2023-04-06T02:17:33;1.40;;;1.30;;
60494;SDS011;46342;49.046;11.920;2023-04-06T02:19:59;1.50;;;1.30;;
60494;SDS011;46342;49.046;11.920;2023-04-06T02:22:25;1.20;;;1.10;;
60494;SDS011;46342;49.046;11.920;2023-04-06T02:24:50;1.35;;;1.20;;
60494;SDS011;46342;49.046;11.920;2023-04-06T02:27:16;2.00;;;1.33;;
60494;SDS011;46342;49.046;11.920;2023-04-06T02:29:41;1.48;;;1.27;;
60494;SDS011;46342;49.046;11.920;2023-04-06T02:32:07;1.23;;;1.13;;
60494;SDS011;46342;49.046;11.920;2023-04-06T02:34:32;1.63;;;1.42;;
60494;SDS011;46342;49.046;11.920;2023-04-06T02:36:58;1.70;;;1.40;;
60494;SDS011;46342;49.046;11.920;2023-04-06T02:39:23;1.60;;;1.30;;
60494;SDS011;46342;49.046;11.920;2023-04-06T02:41:49;1.35;;;1.25;;
60494;SDS011;46342;49.046;11.920;2023-04-06T02:44:15;1.25;;;1.15;;
60494;SDS011;46342;49.046;11.920;2023-04-06T02:46:40;1.65;;;1.10;;
60494;SDS011;46342;49.046;11.920;2023-04-06T02:49:06;1.30;;;1.20;;
60494;SDS011;46342;49.046;11.920;2023-04-06T02:51:31;1.45;;;1.35;;
60494;SDS011;46342;49.046;11.920;2023-04-06T02:53:58;1.30;;;1.20;;
60494;SDS011;46342;49.046;11.920;2023-04-06T02:56:23;1.30;;;1.20;;
60494;SDS011;46342;49.046;11.920;2023-04-06T02:58:49;1.50;;;1.40;;
60494;SDS011;46342;49.046;11.920;2023-04-06T03:01:15;1.40;;;1.10;;
60494;SDS011;46342;49.046;11.920;2023-04-06T03:03:41;1.30;;;1.20;;
60494;SDS011;46342;49.046;11.920;2023-04-06T03:06:06;1.55;;;1.45;;
60494;SDS011;46342;49.046;11.920;2023-04-06T03:08:32;1.30;;;1.20;;
60494;SDS011;46342;49.046;11.920;2023-04-06T03:10:58;1.20;;;1.10;;
60494;SDS011;46342;49.046;11.920;2023-04-06T03:13:23;1.35;;;1.13;;
60494;SDS011;46342;49.046;11.920;2023-04-06T03:15:49;2.80;;;1.13;;
60494;SDS011;46342;49.046;11.920;2023-04-06T03:18:14;1.48;;;0.90;;
60494;SDS011;46342;49.046;11.920;2023-04-06T03:20:40;1.48;;;1.35;;
60494;SDS011;46342;49.046;11.920;2023-04-06T03:23:06;1.38;;;1.23;;
60494;SDS011;46342;49.046;11.920;2023-04-06T03:25:32;1.48;;;1.27;;
60494;SDS011;46342;49.046;11.920;2023-04-06T03:27:57;1.33;;;1.20;;
60494;SDS011;46342;49.046;11.920;2023-04-06T03:30:23;1.30;;;1.17;;
60494;SDS011;46342;49.046;11.920;2023-04-06T03:32:48;1.48;;;1.30;;
60494;SDS011;46342;49.046;11.920;2023-04-06T03:35:14;1.23;;;1.10;;
60494;SDS011;46342;49.046;11.920;2023-04-06T03:37:40;1.30;;;1.20;;
60494;SDS011;46342;49.046;11.920;2023-04-06T03:40:05;1.35;;;1.20;;
60494;SDS011;46342;49.046;11.920;2023-04-06T03:42:31;1.48;;;1.30;;
60494;SDS011;46342;49.046;11.920;2023-04-06T03:44:57;1.52;;;1.30;;
60494;SDS011;46342;49.046;11.920;2023-04-06T03:47:23;1.20;;;1.10;;
60494;SDS011;46342;49.046;11.920;2023-04-06T03:49:49;1.95;;;1.23;;
60494;SDS011;46342;49.046;11.920;2023-04-06T03:52:15;1.08;;;1.02;;
60494;SDS011;46342;49.046;11.920;2023-04-06T03:54:40;1.38;;;1.10;;
60494;SDS011;46342;49.046;11.920;2023-04-06T03:57:06;1.35;;;1.25;;
60494;SDS011;46342;49.046;11.920;2023-04-06T03:59:32;1.13;;;1.00;;
60494;SDS011;46342;49.046;11.920;2023-04-06T04:01:57;1.30;;;1.20;;
60494;SDS011;46342;49.046;11.920;2023-04-06T04:04:23;2.28;;;1.42;;
60494;SDS011;46342;49.046;11.920;2023-04-06T04:06:48;1.23;;;1.13;;
60494;SDS011;46342;49.046;11.920;2023-04-06T04:09:14;1.20;;;1.10;;
60494;SDS011;46342;49.046;11.920;2023-04-06T04:11:40;1.17;;;1.13;;
60494;SDS011;46342;49.046;11.920;2023-04-06T04:14:05;1.58;;;1.30;;
60494;SDS011;46342;49.046;11.920;2023-04-06T04:16:31;1.10;;;1.00;;
60494;SDS011;46342;49.046;11.920;2023-04-06T04:18:56;1.13;;;1.08;;
60494;SDS011;46342;49.046;11.920;2023-04-06T04:21:23;2.45;;;1.27;;
60494;SDS011;46342;49.046;11.920;2023-04-06T04:23:50;1.77;;;1.40;;
60494;SDS011;46342;49.046;11.920;2023-04-06T04:26:17;2.15;;;1.63;;
60494;SDS011;46342;49.046;11.920;2023-04-06T04:28:43;1.65;;;1.55;;
60494;SDS011;46342;49.046;11.920;2023-04-06T04:31:08;2.22;;;1.30;;
60494;SDS011;46342;49.046;11.920;2023-04-06T04:33:34;1.80;;;1.40;;
60494;SDS011;46342;49.046;11.920;2023-04-06T04:35:59;2.17;;;1.50;;
60494;SDS011;46342;49.046;11.920;2023-04-06T04:38:25;1.25;;;1.15;;
60494;SDS011;46342;49.046;11.920;2023-04-06T04:40:50;1.40;;;1.30;;
60494;SDS011;46342;49.046;11.920;2023-04-06T04:43:16;1.60;;;1.33;;
60494;SDS011;46342;49.046;11.920;2023-04-06T04:45:42;1.20;;;1.10;;
60494;SDS011;46342;49.046;11.920;2023-04-06T04:48:07;1.38;;;1.27;;
60494;SDS011;46342;49.046;11.920;2023-04-06T04:50:33;1.45;;;1.35;;
60494;SDS011;46342;49.046;11.920;2023-04-06T04:52:59;1.60;;;1.50;;
60494;SDS011;46342;49.046;11.920;2023-04-06T04:55:24;1.30;;;1.20;;
60494;SDS011;46342;49.046;11.920;2023-04-06T04:57:51;2.72;;;1.70;;
60494;SDS011;46342;49.046;11.920;2023-04-06T05:00:16;1.73;;;1.30;;
60494;SDS011;46342;49.046;11.920;2023-04-06T05:02:42;2.35;;;1.40;;
60494;SDS011;46342;49.046;11.920;2023-04-06T05:05:07;1.50;;;1.17;;
60494;SDS011;46342;49.046;11.920;2023-04-06T05:07:33;1.77;;;1.50;;
60494;SDS011;46342;49.046;11.920;2023-04-06T05:09:59;1.15;;;1.05;;
60494;SDS011;46342;49.046;11.920;2023-04-06T05:12:25;1.30;;;1.20;;
60494;SDS011;46342;49.046;11.920;2023-04-06T05:14:52;2.13;;;1.27;;
60494;SDS011;46342;49.046;11.920;2023-04-06T05:17:18;1.20;;;1.10;;
60494;SDS011;46342;49.046;11.920;2023-04-06T05:19:44;2.47;;;1.00;;
60494;SDS011;46342;49.046;11.920;2023-04-06T05:22:10;2.08;;;1.27;;
60494;SDS011;46342;49.046;11.920;2023-04-06T05:24:36;1.55;;;1.20;;
60494;SDS011;46342;49.046;11.920;2023-04-06T05:27:01;1.52;;;1.40;;
60494;SDS011;46342;49.046;11.920;2023-04-06T05:29:27;1.15;;;1.13;;
60494;SDS011;46342;49.046;11.920;2023-04-06T05:31:53;1.40;;;1.30;;
60494;SDS011;46342;49.046;11.920;2023-04-06T05:34:19;1.50;;;1.30;;
60494;SDS011;46342;49.046;11.920;2023-04-06T05:36:45;1.38;;;1.17;;
60494;SDS011;46342;49.046;11.920;2023-04-06T05:39:10;1.20;;;1.10;;
60494;SDS011;46342;49.046;11.920;2023-04-06T05:41:37;1.35;;;1.25;;
60494;SDS011;46342;49.046;11.920;2023-04-06T05:44:02;1.45;;;1.33;;
60494;SDS011;46342;49.046;11.920;2023-04-06T05:46:28;1.70;;;1.50;;
60494;SDS011;46342;49.046;11.920;2023-04-06T05:48:54;1.88;;;1.40;;
60494;SDS011;46342;49.046;11.920;2023-04-06T05:51:20;1.48;;;1.35;;
60494;SDS011;46342;49.046;11.920;2023-04-06T05:53:45;1.70;;;1.60;;
60494;SDS011;46342;49.046;11.920;2023-04-06T05:56:11;2.10;;;1.38;;
60494;SDS011;46342;49.046;11.920;2023-04-06T05:58:37;1.38;;;1.20;;
60494;SDS011;46342;49.046;11.920;2023-04-06T06:01:03;1.38;;;1.20;;
60494;SDS011;46342;49.046;11.920;2023-04-06T06:03:29;1.60;;;1.50;;
60494;SDS011;46342;49.046;11.920;2023-04-06T06:05:59;2.13;;;1.50;;
60494;SDS011;46342;49.046;11.920;2023-04-06T06:08:28;1.92;;;1.60;;
60494;SDS011;46342;49.046;11.920;2023-04-06T06:10:55;3.15;;;1.65;;
60494;SDS011;46342;49.046;11.920;2023-04-06T06:13:21;1.95;;;1.55;;
60494;SDS011;46342;49.046;11.920;2023-04-06T06:15:48;1.83;;;1.50;;
60494;SDS011;46342;49.046;11.920;2023-04-06T06:18:14;4.55;;;1.80;;
60494;SDS011;46342;49.046;11.920;2023-04-06T06:20:40;1.83;;;1.73;;
60494;SDS011;46342;49.046;11.920;2023-04-06T06:23:05;1.65;;;1.30;;
60494;SDS011;46342;49.046;11.920;2023-04-06T06:25:31;1.58;;;1.48;;
60494;SDS011;46342;49.046;11.920;2023-04-06T06:27:58;1.63;;;1.52;;
60494;SDS011;46342;49.046;11.920;2023-04-06T06:30:24;1.67;;;1.45;;
60494;SDS011;46342;49.046;11.920;2023-04-06T06:32:50;1.73;;;1.52;;
60494;SDS011;46342;49.046;11.920;2023-04-06T06:35:16;2.10;;;1.83;;
60494;SDS011;46342;49.046;11.920;2023-04-06T06:37:42;2.15;;;1.90;;
60494;SDS011;46342;49.046;11.920;2023-04-06T06:40:08;1.88;;;1.60;;
60494;SDS011;46342;49.046;11.920;2023-04-06T06:42:35;3.55;;;1.60;;
60494;SDS011;46342;49.046;11.920;2023-04-06T06:45:00;2.30;;;2.05;;
60494;SDS011;46342;49.046;11.920;2023-04-06T06:47:26;2.47;;;1.85;;
60494;SDS011;46342;49.046;11.920;2023-04-06T06:49:52;3.60;;;2.38;;
60494;SDS011;46342;49.046;11.920;2023-04-06T06:52:17;2.10;;;1.90;;
60494;SDS011;46342;49.046;11.920;2023-04-06T06:54:43;3.67;;;1.80;;
60494;SDS011;46342;49.046;11.920;2023-04-06T06:57:09;1.92;;;1.70;;
60494;SDS011;46342;49.046;11.920;2023-04-06T06:59:35;2.35;;;1.73;;
60494;SDS011;46342;49.046;11.920;2023-04-06T07:02:00;2.22;;;1.63;;
60494;SDS011;46342;49.046;11.920;2023-04-06T07:04:26;1.77;;;1.67;;
60494;SDS011;46342;49.046;11.920;2023-04-06T07:06:51;1.83;;;1.65;;
60494;SDS011;46342;49.046;11.920;2023-04-06T07:09:17;1.70;;;1.60;;
60494;SDS011;46342;49.046;11.920;2023-04-06T07:11:43;2.05;;;1.80;;
60494;SDS011;46342;49.046;11.920;2023-04-06T07:14:09;2.00;;;1.80;;
60494;SDS011;46342;49.046;11.920;2023-04-06T07:16:36;2.17;;;1.80;;
60494;SDS011;46342;49.046;11.920;2023-04-06T07:19:02;2.28;;;1.58;;
60494;SDS011;46342;49.046;11.920;2023-04-06T07:21:27;1.90;;;1.60;;
60494;SDS011;46342;49.046;11.920;2023-04-06T07:23:53;1.90;;;1.67;;
60494;SDS011;46342;49.046;11.920;2023-04-06T07:26:18;2.53;;;1.85;;
60494;SDS011;46342;49.046;11.920;2023-04-06T07:28:44;3.08;;;2.00;;
60494;SDS011;46342;49.046;11.920;2023-04-06T07:31:09;2.33;;;2.00;;
60494;SDS011;46342;49.046;11.920;2023-04-06T07:33:35;3.03;;;1.75;;
60494;SDS011;46342;49.046;11.920;2023-04-06T07:36:00;1.65;;;1.55;;
60494;SDS011;46342;49.046;11.920;2023-04-06T07:38:26;1.55;;;1.45;;
60494;SDS011;46342;49.046;11.920;2023-04-06T07:40:52;2.17;;;1.60;;
60494;SDS011;46342;49.046;11.920;2023-04-06T07:43:17;1.80;;;1.70;;
60494;SDS011;46342;49.046;11.920;2023-04-06T07:45:43;1.90;;;1.70;;
60494;SDS011;46342;49.046;11.920;2023-04-06T07:48:08;1.75;;;1.63;;
60494;SDS011;46342;49.046;11.920;2023-04-06T07:50:34;1.77;;;1.67;;
60494;SDS011;46342;49.046;11.920;2023-04-06T07:53:00;1.77;;;1.63;;
60494;SDS011;46342;49.046;11.920;2023-04-06T07:55:26;2.55;;;1.70;;
60494;SDS011;46342;49.046;11.920;2023-04-06T07:57:51;2.45;;;2.00;;
60494;SDS011;46342;49.046;11.920;2023-04-06T08:00:17;2.10;;;1.70;;
60494;SDS011;46342;49.046;11.920;2023-04-06T08:02:43;1.55;;;1.45;;
60494;SDS011;46342;49.046;11.920;2023-04-06T08:05:08;2.47;;;1.90;;
60494;SDS011;46342;49.046;11.920;2023-04-06T08:07:34;3.50;;;1.83;;
60494;SDS011;46342;49.046;11.920;2023-04-06T08:10:00;2.38;;;1.70;;
60494;SDS011;46342;49.046;11.920;2023-04-06T08:12:26;2.22;;;1.70;;
60494;SDS011;46342;49.046;11.920;2023-04-06T08:14:52;2.10;;;1.83;;
60494;SDS011;46342;49.046;11.920;2023-04-06T08:17:17;6.43;;;1.95;;
60494;SDS011;46342;49.046;11.920;2023-04-06T08:19:43;2.63;;;1.65;;
60494;SDS011;46342;49.046;11.920;2023-04-06T08:22:09;2.10;;;1.90;;
60494;SDS011;46342;49.046;11.920;2023-04-06T08:24:35;2.15;;;1.88;;
60494;SDS011;46342;49.046;11.920;2023-04-06T08:27:01;1.77;;;1.55;;
60494;SDS011;46342;49.046;11.920;2023-04-06T08:29:26;1.83;;;1.70;;
60494;SDS011;46342;49.046;11.920;2023-04-06T08:31:52;2.03;;;1.80;;
60494;SDS011;46342;49.046;11.920;2023-04-06T08:34:17;2.47;;;1.90;;
60494;SDS011;46342;49.046;11.920;2023-04-06T08:36:43;2.20;;;1.70;;
60494;SDS011;46342;49.046;11.920;2023-04-06T08:39:10;1.65;;;1.55;;
60494;SDS011;46342;49.046;11.920;2023-04-06T08:41:36;1.83;;;1.48;;
60494;SDS011;46342;49.046;11.920;2023-04-06T08:44:02;1.90;;;1.60;;
60494;SDS011;46342;49.046;11.920;2023-04-06T08:46:30;4.05;;;2.00;;
60494;SDS011;46342;49.046;11.920;2023-04-06T08:49:00;4.68;;;2.00;;
60494;SDS011;46342;49.046;11.920;2023-04-06T08:51:28;2.63;;;1.92;;
60494;SDS011;46342;49.046;11.920;2023-04-06T08:53:55;2.10;;;1.90;;
60494;SDS011;46342;49.046;11.920;2023-04-06T08:56:23;2.75;;;1.80;;
60494;SDS011;46342;49.046;11.920;2023-04-06T08:58:50;2.25;;;2.05;;
60494;SDS011;46342;49.046;11.920;2023-04-06T09:01:18;2.30;;;1.90;;
60494;SDS011;46342;49.046;11.920;2023-04-06T09:03:48;2.05;;;1.65;;
60494;SDS011;46342;49.046;11.920;2023-04-06T09:08:41;1.55;;;1.40;;
60494;SDS011;46342;49.046;11.920;2023-04-06T09:11:07;1.58;;;1.48;;
60494;SDS011;46342;49.046;11.920;2023-04-06T09:13:52;1.67;;;1.58;;
60494;SDS011;46342;49.046;11.920;2023-04-06T09:16:20;2.00;;;1.73;;
60494;SDS011;46342;49.046;11.920;2023-04-06T09:18:46;2.40;;;1.77;;
60494;SDS011;46342;49.046;11.920;2023-04-06T09:21:12;1.83;;;1.70;;
60494;SDS011;46342;49.046;11.920;2023-04-06T09:23:41;1.67;;;1.58;;
60494;SDS011;46342;49.046;11.920;2023-04-06T09:28:54;2.83;;;1.60;;
60494;SDS011;46342;49.046;11.920;2023-04-06T09:33:47;2.75;;;2.33;;
60494;SDS011;46342;49.046;11.920;2023-04-06T09:36:13;2.75;;;1.70;;
60494;SDS011;46342;49.046;11.920;2023-04-06T09:38:56;1.92;;;1.70;;
60494;SDS011;46342;49.046;11.920;2023-04-06T09:41:24;10.02;;;2.65;;
60494;SDS011;46342;49.046;11.920;2023-04-06T09:43:52;1.70;;;1.52;;
60494;SDS011;46342;49.046;11.920;2023-04-06T09:46:26;1.98;;;1.50;;
60494;SDS011;46342;49.046;11.920;2023-04-06T09:48:55;1.88;;;1.77;;
60494;SDS011;46342;49.046;11.920;2023-04-06T09:51:21;1.65;;;1.55;;
60494;SDS011;46342;49.046;11.920;2023-04-06T09:53:49;2.00;;;1.70;;
60494;SDS011;46342;49.046;11.920;2023-04-06T09:56:17;2.15;;;1.98;;
60494;SDS011;46342;49.046;11.920;2023-04-06T09:58:48;2.08;;;1.80;;
60494;SDS011;46342;49.046;11.920;2023-04-06T10:01:17;1.67;;;1.55;;
60494;SDS011;46342;49.046;11.920;2023-04-06T10:06:31;2.17;;;1.98;;
60494;SDS011;46342;49.046;11.920;2023-04-06T10:09:00;2.53;;;1.85;;
60494;SDS011;46342;49.046;11.920;2023-04-06T10:13:53;1.85;;;1.60;;
60494;SDS011;46342;49.046;11.920;2023-04-06T10:16:20;1.67;;;1.58;;
60494;SDS011;46342;49.046;11.920;2023-04-06T10:18:52;1.98;;;1.80;;
60494;SDS011;46342;49.046;11.920;2023-04-06T10:21:32;2.35;;;1.75;;
60494;SDS011;46342;49.046;11.920;2023-04-06T10:23:59;2.10;;;1.88;;
60494;SDS011;46342;49.046;11.920;2023-04-06T10:26:27;1.77;;;1.67;;
60494;SDS011;46342;49.046;11.920;2023-04-06T10:28:52;2.20;;;1.70;;
60494;SDS011;46342;49.046;11.920;2023-04-06T10:31:23;2.28;;;1.90;;
60494;SDS011;46342;49.046;11.920;2023-04-06T10:33:56;2.00;;;1.80;;
60494;SDS011;46342;49.046;11.920;2023-04-06T10:36:26;1.85;;;1.73;;
60494;SDS011;46342;49.046;11.920;2023-04-06T10:38:59;2.20;;;2.00;;
60494;SDS011;46342;49.046;11.920;2023-04-06T10:41:34;1.75;;;1.65;;
60494;SDS011;46342;49.046;11.920;2023-04-06T10:44:20;1.67;;;1.58;;
60494;SDS011;46342;49.046;11.920;2023-04-06T10:46:53;2.00;;;1.70;;
60494;SDS011;46342;49.046;11.920;2023-04-06T10:49:20;2.55;;;1.70;;
60494;SDS011;46342;49.046;11.920;2023-04-06T10:51:50;2.08;;;1.88;;
60494;SDS011;46342;49.046;11.920;2023-04-06T10:54:24;2.67;;;1.65;;
60494;SDS011;46342;49.046;11.920;2023-04-06T10:56:51;1.90;;;1.80;;
60494;SDS011;46342;49.046;11.920;2023-04-06T10:59:21;2.25;;;1.65;;
60494;SDS011;46342;49.046;11.920;2023-04-06T11:01:47;2.65;;;1.42;;
60494;SDS011;46342;49.046;11.920;2023-04-06T11:04:15;2.17;;;1.98;;
60494;SDS011;46342;49.046;11.920;2023-04-06T11:06:41;2.33;;;2.08;;
60494;SDS011;46342;49.046;11.920;2023-04-06T11:09:12;4.00;;;1.90;;
60494;SDS011;46342;49.046;11.920;2023-04-06T11:11:52;1.98;;;1.80;;
60494;SDS011;46342;49.046;11.920;2023-04-06T11:14:17;1.90;;;1.80;;
60494;SDS011;46342;49.046;11.920;2023-04-06T11:16:45;2.03;;;1.52;;
60494;SDS011;46342;49.046;11.920;2023-04-06T11:19:13;1.77;;;1.63;;
60494;SDS011;46342;49.046;11.920;2023-04-06T11:24:13;3.15;;;2.10;;
60494;SDS011;46342;49.046;11.920;2023-04-06T11:29:08;3.00;;;1.85;;
60494;SDS011;46342;49.046;11.920;2023-04-06T11:31:38;1.90;;;1.70;;
60494;SDS011;46342;49.046;11.920;2023-04-06T11:34:13;2.05;;;1.73;;
60494;SDS011;46342;49.046;11.920;2023-04-06T11:36:43;2.28;;;1.80;;
60494;SDS011;46342;49.046;11.920;2023-04-06T11:39:10;5.80;;;2.10;;
60494;SDS011;46342;49.046;11.920;2023-04-06T11:41:37;2.00;;;1.70;;
60494;SDS011;46342;49.046;11.920;2023-04-06T11:44:02;2.92;;;1.80;;
60494;SDS011;46342;49.046;11.920;2023-04-06T11:46:28;1.70;;;1.60;;
60494;SDS011;46342;49.046;11.920;2023-04-06T11:48:57;2.17;;;1.60;;
60494;SDS011;46342;49.046;11.920;2023-04-06T11:51:25;2.00;;;1.80;;
60494;SDS011;46342;49.046;11.920;2023-04-06T11:53:51;3.28;;;1.77;;
60494;SDS011;46342;49.046;11.920;2023-04-06T11:56:50;2.25;;;1.50;;
60494;SDS011;46342;49.046;11.920;2023-04-06T11:59:11;2.17;;;1.95;;
60494;SDS011;46342;49.046;11.920;2023-04-06T12:01:44;2.20;;;2.00;;
60494;SDS011;46342;49.046;11.920;2023-04-06T12:04:10;1.90;;;1.70;;
60494;SDS011;46342;49.046;11.920;2023-04-06T12:06:35;2.25;;;2.05;;
60494;SDS011;46342;49.046;11.920;2023-04-06T12:09:01;5.00;;;2.00;;
60494;SDS011;46342;49.046;11.920;2023-04-06T12:11:26;1.55;;;1.40;;
60494;SDS011;46342;49.046;11.920;2023-04-06T12:13:52;2.00;;;1.80;;
60494;SDS011;46342;49.046;11.920;2023-04-06T12:16:18;1.70;;;1.60;;
60494;SDS011;46342;49.046;11.920;2023-04-06T12:18:44;1.70;;;1.60;;
60494;SDS011;46342;49.046;11.920;2023-04-06T12:21:10;2.65;;;1.75;;
60494;SDS011;46342;49.046;11.920;2023-04-06T12:23:35;2.20;;;1.70;;
60494;SDS011;46342;49.046;11.920;2023-04-06T12:26:01;1.70;;;1.60;;
60494;SDS011;46342;49.046;11.920;2023-04-06T12:28:28;1.48;;;1.38;;
60494;SDS011;46342;49.046;11.920;2023-04-06T12:30:54;2.38;;;1.70;;
60494;SDS011;46342;49.046;11.920;2023-04-06T12:33:20;2.30;;;1.98;;
60494;SDS011;46342;49.046;11.920;2023-04-06T12:35:46;1.85;;;1.60;;
60494;SDS011;46342;49.046;11.920;2023-04-06T12:38:11;1.85;;;1.75;;
60494;SDS011;46342;49.046;11.920;2023-04-06T12:40:37;1.60;;;1.50;;
60494;SDS011;46342;49.046;11.920;2023-04-06T12:43:03;1.63;;;1.52;;
60494;SDS011;46342;49.046;11.920;2023-04-06T12:45:32;2.08;;;1.98;;
60494;SDS011;46342;49.046;11.920;2023-04-06T12:47:57;1.45;;;1.35;;
60494;SDS011;46342;49.046;11.920;2023-04-06T12:50:23;3.00;;;1.58;;
60494;SDS011;46342;49.046;11.920;2023-04-06T12:52:49;1.70;;;1.60;;
60494;SDS011;46342;49.046;11.920;2023-04-06T12:55:14;1.75;;;1.65;;
60494;SDS011;46342;49.046;11.920;2023-04-06T12:57:40;1.70;;;1.60;;
60494;SDS011;46342;49.046;11.920;2023-04-06T13:00:06;1.58;;;1.48;;
60494;SDS011;46342;49.046;11.920;2023-04-06T13:02:33;1.58;;;1.48;;
60494;SDS011;46342;49.046;11.920;2023-04-06T13:04:59;1.70;;;1.60;;
60494;SDS011;46342;49.046;11.920;2023-04-06T13:07:25;2.08;;;1.63;;
60494;SDS011;46342;49.046;11.920;2023-04-06T13:09:51;1.80;;;1.70;;
60494;SDS011;46342;49.046;11.920;2023-04-06T13:12:16;2.05;;;1.85;;
60494;SDS011;46342;49.046;11.920;2023-04-06T13:14:42;2.20;;;1.90;;
60494;SDS011;46342;49.046;11.920;2023-04-06T13:17:08;1.60;;;1.50;;
60494;SDS011;46342;49.046;11.920;2023-04-06T13:19:34;1.95;;;1.80;;
60494;SDS011;46342;49.046;11.920;2023-04-06T13:22:00;1.60;;;1.50;;
60494;SDS011;46342;49.046;11.920;2023-04-06T13:24:25;1.85;;;1.67;;
60494;SDS011;46342;49.046;11.920;2023-04-06T13:26:51;2.17;;;1.90;;
60494;SDS011;46342;49.046;11.920;2023-04-06T13:29:16;2.20;;;1.65;;
60494;SDS011;46342;49.046;11.920;2023-04-06T13:31:42;1.58;;;1.48;;
60494;SDS011;46342;49.046;11.920;2023-04-06T13:34:07;1.55;;;1.40;;
60494;SDS011;46342;49.046;11.920;2023-04-06T13:36:33;1.88;;;1.70;;
60494;SDS011;46342;49.046;11.920;2023-04-06T13:38:59;1.70;;;1.60;;
60494;SDS011;46342;49.046;11.920;2023-04-06T13:41:25;1.45;;;1.35;;
60494;SDS011;46342;49.046;11.920;2023-04-06T13:43:51;2.28;;;1.58;;
60494;SDS011;46342;49.046;11.920;2023-04-06T13:46:17;1.90;;;1.33;;
60494;SDS011;46342;49.046;11.920;2023-04-06T13:48:43;1.58;;;1.48;;
60494;SDS011;46342;49.046;11.920;2023-04-06T13:51:13;1.85;;;1.30;;
60494;SDS011;46342;49.046;11.920;2023-04-06T13:53:39;2.40;;;2.00;;
60494;SDS011;46342;49.046;11.920;2023-04-06T13:56:05;1.50;;;1.40;;
60494;SDS011;46342;49.046;11.920;2023-04-06T13:58:32;1.40;;;1.30;;
60494;SDS011;46342;49.046;11.920;2023-04-06T14:01:05;1.60;;;1.50;;
60494;SDS011;46342;49.046;11.920;2023-04-06T14:03:32;1.63;;;1.40;;
60494;SDS011;46342;49.046;11.920;2023-04-06T14:05:58;1.88;;;1.75;;
60494;SDS011;46342;49.046;11.920;2023-04-06T14:08:24;1.90;;;1.58;;
60494;SDS011;46342;49.046;11.920;2023-04-06T14:10:50;1.70;;;1.60;;
60494;SDS011;46342;49.046;11.920;2023-04-06T14:13:15;1.48;;;1.38;;
60494;SDS011;46342;49.046;11.920;2023-04-06T14:15:42;2.53;;;1.70;;
60494;SDS011;46342;49.046;11.920;2023-04-06T14:18:08;2.40;;;1.50;;
60494;SDS011;46342;49.046;11.920;2023-04-06T14:20:34;1.25;;;1.23;;
60494;SDS011;46342;49.046;11.920;2023-04-06T14:23:03;1.60;;;1.50;;
60494;SDS011;46342;49.046;11.920;2023-04-06T14:25:28;1.60;;;1.50;;
60494;SDS011;46342;49.046;11.920;2023-04-06T14:27:59;1.40;;;1.30;;
60494;SDS011;46342;49.046;11.920;2023-04-06T14:30:26;1.73;;;1.30;;
60494;SDS011;46342;49.046;11.920;2023-04-06T14:32:52;1.52;;;1.42;;
60494;SDS011;46342;49.046;11.920;2023-04-06T14:35:21;1.67;;;1.13;;
60494;SDS011;46342;49.046;11.920;2023-04-06T14:37:47;1.40;;;1.30;;
60494;SDS011;46342;49.046;11.920;2023-04-06T14:40:12;1.80;;;1.40;;
60494;SDS011;46342;49.046;11.920;2023-04-06T14:42:38;1.88;;;1.58;;
60494;SDS011;46342;49.046;11.920;2023-04-06T14:45:03;1.63;;;1.52;;
60494;SDS011;46342;49.046;11.920;2023-04-06T14:47:31;1.73;;;1.47;;